Terminal Aerodrome Forecast
Issued by NWS

Home | Current Version | Previous Version | Text Only | Print | Product List | Glossary On
Versions: 1 2 3 4 5 6 7 8 9 10 11 12 13 14 15 16
000
FTUS45 KABQ 062147 AAA
TAFLVS
TAF AMD
KLVS 062147Z 0622/0718 04012KT P6SM VCTS SCT008 BKN050CB
      TEMPO 0622/0701 VRB18G28KT 5SM -SHRA BR BKN006
     FM070100 06011KT P6SM VCTS BKN035CB BKN070
     FM070400 03010KT 5SM -SHRA BR OVC008
     FM071100 06007KT 4SM BR OVC012
     FM071700 17007KT P6SM BKN030=

USA.gov is the U.S. government's official web portal to all federal, state and local government web resources and services.